createdAt,value
2019-03-29T06:14:41.814Z,53.30
2019-03-29T06:15:41.769Z,62.90
2019-03-29T06:16:41.766Z,57.80
2019-03-29T06:17:48.370Z,63.90
2019-03-29T06:18:42.811Z,57.90
2019-03-29T06:19:41.725Z,59.30
2019-03-29T06:20:41.803Z,61.90
2019-03-29T06:21:41.708Z,62.20
2019-03-29T06:22:41.853Z,60.90
2019-03-29T06:23:41.686Z,62.20
2019-03-29T06:24:41.729Z,58.80
2019-03-29T06:25:41.668Z,57.80
2019-03-29T06:26:41.753Z,58.70
2019-03-29T06:27:41.677Z,62.30
2019-03-29T06:28:41.660Z,50.90
2019-03-29T06:29:41.630Z,56.70
2019-03-29T06:30:41.681Z,50.50
2019-03-29T06:31:41.607Z,50.90
2019-03-29T06:32:41.683Z,54.10
2019-03-29T06:33:44.380Z,57.30
2019-03-29T06:34:41.599Z,50.00
2019-03-29T06:35:41.555Z,52.20
2019-03-29T06:36:41.615Z,51.70
2019-03-29T06:37:41.539Z,54.10
2019-03-29T06:38:41.651Z,57.10
2019-03-29T06:39:41.504Z,47.20
2019-03-29T06:40:41.530Z,47.00
2019-03-29T06:41:41.485Z,48.50
2019-03-29T06:42:41.505Z,44.40
2019-03-29T06:43:41.494Z,45.10
2019-03-29T06:44:44.205Z,51.70
2019-03-29T06:45:47.977Z,44.50
2019-03-29T06:46:42.501Z,46.90
2019-03-29T06:47:41.432Z,42.70
2019-03-29T06:48:41.521Z,45.10
2019-03-29T06:49:41.427Z,43.50
2019-03-29T06:50:41.528Z,40.00
2019-03-29T06:51:41.379Z,42.60
2019-03-29T06:52:41.426Z,43.20
2019-03-29T06:53:41.445Z,41.30
2019-03-29T06:54:41.425Z,39.30
2019-03-29T06:55:41.348Z,39.90
2019-03-29T06:56:41.449Z,40.00
2019-03-29T06:57:41.320Z,43.80
2019-03-29T06:58:41.390Z,38.10
2019-03-29T06:59:41.306Z,40.00
2019-03-29T07:00:41.364Z,37.20
2019-03-29T07:01:41.279Z,39.20
2019-03-29T07:02:41.384Z,36.60
2019-03-29T07:03:41.289Z,38.80
2019-03-29T07:04:41.289Z,37.50
2019-03-29T07:05:41.215Z,38.50
2019-03-29T07:06:41.323Z,37.20
2019-03-29T07:07:44.427Z,38.90
2019-03-29T07:08:41.251Z,40.80
2019-03-29T07:09:41.278Z,37.60
2019-03-29T07:10:41.233Z,36.10
2019-03-29T07:11:41.155Z,38.50
2019-03-29T07:12:41.273Z,33.40
2019-03-29T07:13:41.203Z,36.50
2019-03-29T07:14:41.192Z,35.00
2019-03-29T07:15:41.111Z,32.90
2019-03-29T07:16:41.167Z,34.40
2019-03-29T07:17:41.084Z,39.30
2019-03-29T07:18:41.190Z,32.30
2019-03-29T07:19:41.105Z,31.20
2019-03-29T07:20:41.107Z,32.60
2019-03-29T07:21:41.073Z,30.00
2019-03-29T07:22:41.111Z,30.50
2019-03-29T07:23:41.022Z,30.80
2019-03-29T07:24:41.154Z,31.50
2019-03-29T07:25:41.017Z,30.20
2019-03-29T07:26:41.001Z,27.30
2019-03-29T07:27:45.853Z,29.90
2019-03-29T07:28:41.967Z,30.70
2019-03-29T07:29:41.019Z,30.20
2019-03-29T07:30:40.963Z,27.20
2019-03-29T07:31:40.960Z,29.30
2019-03-29T07:32:40.938Z,34.80
2019-03-29T07:33:40.927Z,27.50
2019-03-29T07:34:40.901Z,30.40
2019-03-29T07:35:40.955Z,29.90
2019-03-29T07:36:40.881Z,28.50
2019-03-29T07:37:40.876Z,31.80
2019-03-29T07:38:40.854Z,29.10
2019-03-29T07:39:40.883Z,30.40
2019-03-29T07:40:40.889Z,28.70
2019-03-29T07:41:40.855Z,31.60
2019-03-29T07:42:40.811Z,33.50
2019-03-29T07:43:40.823Z,31.00
2019-03-29T07:44:40.792Z,28.30
2019-03-29T07:45:40.816Z,27.40
2019-03-29T07:46:40.776Z,27.00
2019-03-29T07:47:40.761Z,29.10
2019-03-29T07:48:40.745Z,27.60
2019-03-29T07:49:40.747Z,28.50
2019-03-29T07:50:40.758Z,28.00
2019-03-29T07:51:40.726Z,27.20
2019-03-29T07:52:40.711Z,28.40
2019-03-29T07:53:40.708Z,26.10
2019-03-29T07:54:40.683Z,26.40
2019-03-29T07:55:40.693Z,28.90
2019-03-29T07:56:40.667Z,24.90
2019-03-29T07:57:40.656Z,25.80
2019-03-29T07:58:40.632Z,26.10
2019-03-29T07:59:40.643Z,27.40
2019-03-29T08:00:40.664Z,26.00
2019-03-29T08:01:40.633Z,24.50
2019-03-29T08:02:40.593Z,26.40
2019-03-29T08:03:40.577Z,25.10
2019-03-29T08:04:40.571Z,25.60
2019-03-29T08:05:40.589Z,24.20
2019-03-29T08:06:40.585Z,23.90
2019-03-29T08:07:40.535Z,25.00
2019-03-29T08:08:40.551Z,23.90
2019-03-29T08:09:40.519Z,26.90
2019-03-29T08:10:40.501Z,25.50
2019-03-29T08:11:46.548Z,24.30
2019-03-29T08:12:41.473Z,25.00
2019-03-29T08:13:40.492Z,25.20
2019-03-29T08:14:40.469Z,23.40
2019-03-29T08:15:40.453Z,23.20
2019-03-29T08:16:40.455Z,22.60
2019-03-29T08:17:40.436Z,23.60
2019-03-29T08:18:40.411Z,24.30
2019-03-29T08:19:40.408Z,22.50
2019-03-29T08:20:43.958Z,23.30
2019-03-29T08:21:40.415Z,22.30
2019-03-29T08:22:40.367Z,24.10
2019-03-29T08:23:40.362Z,23.40
2019-03-29T08:24:40.346Z,24.30
2019-03-29T08:25:40.363Z,22.90
2019-03-29T08:26:40.356Z,23.90
2019-03-29T08:28:41.349Z,24.40
2019-03-29T08:29:40.293Z,19.80
2019-03-29T08:30:40.281Z,22.60
2019-03-29T08:31:40.332Z,21.80
2019-03-29T08:32:40.254Z,21.90
2019-03-29T08:33:40.253Z,22.60
2019-03-29T08:34:40.244Z,23.00
2019-03-29T08:35:40.226Z,22.80
2019-03-29T08:36:40.210Z,23.00
2019-03-29T08:37:40.230Z,22.20
2019-03-29T08:38:40.191Z,20.30
2019-03-29T08:40:41.219Z,22.50
2019-03-29T08:41:40.158Z,21.60
2019-03-29T08:42:40.174Z,20.70
2019-03-29T08:43:40.137Z,17.60
2019-03-29T08:44:40.150Z,20.30
2019-03-29T08:45:40.166Z,19.70
2019-03-29T08:46:40.127Z,20.30
2019-03-29T08:47:40.122Z,18.50
2019-03-29T08:48:40.085Z,18.60
2019-03-29T08:49:40.102Z,20.90
2019-03-29T08:50:40.062Z,17.60
2019-03-29T08:51:41.575Z,19.20
2019-03-29T08:52:40.063Z,19.60
2019-03-29T08:54:41.063Z,21.20
2019-03-29T08:55:46.100Z,17.00
2019-03-29T08:56:40.984Z,17.40
2019-03-29T08:57:40.063Z,18.40
2019-03-29T08:58:39.965Z,16.50
2019-03-29T08:59:40.067Z,16.30
2019-03-29T09:00:39.985Z,17.20
2019-03-29T09:01:40.092Z,18.50
2019-03-29T09:02:39.927Z,16.90
2019-03-29T09:03:40.005Z,17.80
2019-03-29T09:04:39.913Z,17.90
2019-03-29T09:05:39.983Z,16.00
2019-03-29T09:06:52.419Z,18.30
2019-03-29T09:07:44.866Z,17.10
2019-03-29T09:08:39.938Z,14.40
2019-03-29T09:09:39.854Z,16.10
2019-03-29T09:11:40.882Z,14.40
2019-03-29T09:12:39.981Z,17.10
2019-03-29T09:13:39.855Z,15.20
2019-03-29T09:14:39.842Z,16.00
2019-03-29T09:15:39.780Z,16.10
2019-03-29T09:16:39.869Z,15.70
2019-03-29T09:17:39.755Z,17.00
2019-03-29T09:18:39.903Z,17.10
2019-03-29T09:19:39.769Z,14.60
2019-03-29T09:20:39.781Z,18.80
2019-03-29T09:21:39.715Z,16.90
2019-03-29T09:22:39.791Z,16.00
2019-03-29T09:23:39.726Z,15.80
2019-03-29T09:24:39.734Z,17.40
2019-03-29T09:25:40.599Z,15.00
2019-03-29T09:26:39.764Z,14.50
2019-03-29T09:27:39.650Z,15.10
2019-03-29T09:28:39.789Z,17.00
2019-03-29T09:29:39.638Z,17.70
2019-03-29T09:30:39.644Z,18.70
2019-03-29T09:31:39.616Z,17.90
2019-03-29T09:32:39.664Z,17.20
2019-03-29T09:33:39.616Z,13.80
2019-03-29T09:34:39.707Z,16.00
2019-03-29T09:35:42.584Z,17.10
2019-03-29T09:36:39.599Z,16.40
2019-03-29T09:37:39.553Z,15.80
2019-03-29T09:38:39.630Z,16.90
2019-03-29T09:39:39.528Z,14.90
2019-03-29T09:40:39.671Z,14.10
2019-03-29T09:41:39.496Z,14.40
2019-03-29T09:42:39.627Z,15.60
2019-03-29T09:43:39.509Z,16.60
2019-03-29T09:44:39.574Z,13.30
2019-03-29T09:45:41.127Z,14.90
2019-03-29T09:46:39.469Z,14.40
2019-03-29T09:47:40.677Z,15.40
2019-03-29T09:48:39.431Z,17.20
2019-03-29T09:49:39.456Z,15.60
2019-03-29T09:50:39.413Z,15.50
2019-03-29T09:51:39.431Z,17.20
2019-03-29T09:52:39.386Z,16.40
2019-03-29T09:53:41.179Z,15.70
2019-03-29T09:54:39.396Z,14.10
2019-03-29T09:55:39.334Z,15.70
2019-03-29T09:56:39.665Z,14.80
2019-03-29T09:57:39.329Z,15.30
2019-03-29T09:58:39.318Z,16.70
2019-03-29T09:59:39.294Z,23.30
2019-03-29T10:00:39.313Z,19.80
2019-03-29T10:01:39.273Z,16.80
2019-03-29T10:02:39.261Z,14.00
2019-03-29T10:03:39.257Z,15.10
2019-03-29T10:05:40.303Z,15.70
2019-03-29T10:07:40.260Z,19.00
2019-03-29T10:08:39.203Z,15.30
2019-03-29T10:09:39.220Z,15.60
2019-03-29T10:10:39.204Z,16.70
2019-03-29T10:11:39.168Z,16.70
2019-03-29T10:12:43.733Z,16.90
2019-03-29T10:13:39.148Z,19.80
2019-03-29T10:14:39.150Z,25.70
2019-03-29T10:15:39.155Z,16.10
2019-03-29T10:16:39.122Z,16.10
2019-03-29T10:17:39.098Z,22.20
2019-03-29T10:18:39.102Z,15.00
2019-03-29T10:19:39.087Z,15.00
2019-03-29T10:20:39.114Z,12.40
2019-03-29T10:21:39.080Z,14.60
2019-03-29T10:22:39.070Z,15.00
2019-03-29T10:23:39.049Z,12.80
2019-03-29T10:24:39.137Z,12.10
2019-03-29T10:25:39.033Z,12.40
2019-03-29T10:26:39.007Z,11.80
2019-03-29T10:27:38.999Z,14.80
2019-03-29T10:28:38.990Z,13.20
2019-03-29T10:29:38.967Z,13.80
2019-03-29T10:30:39.041Z,15.70
2019-03-29T10:31:38.942Z,13.30
2019-03-29T10:32:38.934Z,10.70
2019-03-29T10:33:38.914Z,12.50
2019-03-29T10:34:38.919Z,10.50
2019-03-29T10:35:50.659Z,11.50
2019-03-29T10:36:39.912Z,11.10
2019-03-29T10:37:38.880Z,10.80
2019-03-29T10:38:38.860Z,12.20
2019-03-29T10:39:38.891Z,14.20
2019-03-29T10:40:38.910Z,13.00
2019-03-29T10:41:38.869Z,12.70
2019-03-29T10:42:40.343Z,13.10
2019-03-29T10:43:38.810Z,13.70
2019-03-29T10:44:38.791Z,13.40
2019-03-29T10:45:40.672Z,11.70
2019-03-29T10:46:38.803Z,12.70
2019-03-29T10:47:43.751Z,14.30
2019-03-29T10:48:39.760Z,13.80
2019-03-29T10:49:38.769Z,15.00
2019-03-29T10:50:38.727Z,12.80
2019-03-29T10:51:38.759Z,10.60
2019-03-29T10:52:38.732Z,9.50
2019-03-29T10:53:38.703Z,9.90
2019-03-29T10:54:38.684Z,12.60
2019-03-29T10:55:38.697Z,10.10
2019-03-29T10:56:38.694Z,9.90
2019-03-29T10:57:38.657Z,10.70
2019-03-29T10:58:38.638Z,11.10
2019-03-29T10:59:38.634Z,12.80
2019-03-29T11:00:38.645Z,11.50
2019-03-29T11:01:38.637Z,11.30
2019-03-29T11:02:38.594Z,10.90
2019-03-29T11:03:38.583Z,11.10
2019-03-29T11:04:38.601Z,10.70
2019-03-29T11:05:38.562Z,11.50
2019-03-29T11:06:38.569Z,10.90
2019-03-29T11:07:38.543Z,14.70
2019-03-29T11:08:38.523Z,17.20
2019-03-29T11:09:38.541Z,12.60
2019-03-29T11:10:38.528Z,16.10
2019-03-29T11:11:38.584Z,14.20
2019-03-29T11:12:38.482Z,10.10
2019-03-29T11:13:40.931Z,10.80
2019-03-29T11:14:38.463Z,12.60
2019-03-29T11:15:38.464Z,12.80
2019-03-29T11:16:38.475Z,13.60
2019-03-29T11:17:38.476Z,14.80
2019-03-29T11:18:38.416Z,13.90
2019-03-29T11:19:38.423Z,13.00
2019-03-29T11:20:38.394Z,11.90
2019-03-29T11:21:38.388Z,12.60
2019-03-29T11:22:38.403Z,12.00
2019-03-29T11:23:38.371Z,14.20
2019-03-29T11:24:38.355Z,11.50
2019-03-29T11:25:38.343Z,10.90
2019-03-29T11:26:38.350Z,11.90
2019-03-29T11:27:38.349Z,12.20
2019-03-29T11:28:38.309Z,11.70
2019-03-29T11:29:38.320Z,12.80
2019-03-29T11:30:42.650Z,13.70
2019-03-29T11:31:38.277Z,11.00
2019-03-29T11:32:38.294Z,11.10
2019-03-29T11:33:38.274Z,11.90
2019-03-29T11:34:38.252Z,12.00
2019-03-29T11:35:38.249Z,12.50
2019-03-29T11:36:38.220Z,12.00
2019-03-29T11:37:40.357Z,12.00
2019-03-29T11:38:38.219Z,12.80
2019-03-29T11:39:40.350Z,12.00
2019-03-29T11:40:38.193Z,12.00
2019-03-29T11:41:40.354Z,12.40
2019-03-29T11:42:38.151Z,13.60
2019-03-29T11:43:40.506Z,13.50
2019-03-29T11:44:38.129Z,13.10
2019-03-29T11:45:40.489Z,12.90
2019-03-29T11:46:38.103Z,13.00
2019-03-29T11:48:39.179Z,11.70
2019-03-29T11:50:39.119Z,12.80
2019-03-29T11:52:39.103Z,11.20
2019-03-29T11:53:40.783Z,10.90
2019-03-29T11:54:38.029Z,11.70
2019-03-29T11:56:39.052Z,13.70
2019-03-29T11:58:39.048Z,11.80
2019-03-29T12:00:39.009Z,11.10
2019-03-29T12:02:39.005Z,11.10
2019-03-29T12:03:41.257Z,11.60
2019-03-29T12:04:37.912Z,11.30
2019-03-29T12:06:38.962Z,11.70
2019-03-29T12:09:41.564Z,11.30
2019-03-29T12:13:45.949Z,13.00
2019-03-29T12:14:44.907Z,11.80
2019-03-29T12:15:44.979Z,10.80
2019-03-29T12:16:44.918Z,11.90
2019-03-29T12:19:25.957Z,13.80
2019-03-29T12:20:25.986Z,12.20
2019-03-29T12:21:25.957Z,11.70
2019-03-29T12:22:25.845Z,12.40
2019-03-29T12:23:25.945Z,11.60
2019-03-29T12:24:25.870Z,12.70
2019-03-29T12:25:25.924Z,11.30
2019-03-29T12:26:25.813Z,11.10
2019-03-29T12:27:25.828Z,11.60
2019-03-29T12:28:25.784Z,11.60
2019-03-29T12:29:25.887Z,10.50
2019-03-29T12:30:31.841Z,11.20
2019-03-29T12:31:26.779Z,14.10
2019-03-29T12:32:25.728Z,12.70
2019-03-29T12:33:25.770Z,12.20
2019-03-29T12:34:25.740Z,14.00
2019-03-29T12:35:25.829Z,13.90
2019-03-29T12:36:25.685Z,14.50
2019-03-29T12:37:25.821Z,12.80
2019-03-29T12:38:25.661Z,13.80
2019-03-29T12:39:25.742Z,16.70
2019-03-29T12:40:25.641Z,11.30
2019-03-29T12:41:25.719Z,13.30
2019-03-29T12:42:25.617Z,14.30
2019-03-29T12:43:25.741Z,12.30
2019-03-29T12:44:25.632Z,13.40
2019-03-29T12:45:25.649Z,12.20
2019-03-29T12:46:25.566Z,12.50
2019-03-29T12:47:25.670Z,12.50
2019-03-29T12:48:25.564Z,12.90
2019-03-29T12:49:25.569Z,12.30
2019-03-29T12:50:25.558Z,11.60
2019-03-29T12:51:25.585Z,12.40
2019-03-29T12:52:25.506Z,10.70
2019-03-29T12:53:25.601Z,12.30
2019-03-29T12:54:25.507Z,13.00
2019-03-29T12:55:25.551Z,11.00
2019-03-29T12:56:25.460Z,11.40
2019-03-29T12:57:25.519Z,10.80
2019-03-29T12:58:25.445Z,10.90
2019-03-29T12:59:25.540Z,13.10
2019-03-29T13:00:25.442Z,11.20
2019-03-29T13:01:38.541Z,12.20
2019-03-29T13:02:26.387Z,12.80
2019-03-29T13:03:25.467Z,11.40
2019-03-29T13:04:25.366Z,11.20
2019-03-29T13:05:25.406Z,11.50
2019-03-29T13:06:25.353Z,11.10
2019-03-29T13:07:25.511Z,10.90
2019-03-29T13:08:25.325Z,11.80
2019-03-29T13:09:25.587Z,11.50
2019-03-29T13:10:25.320Z,12.50
2019-03-29T13:11:25.349Z,13.00
2019-03-29T13:12:25.276Z,11.70
2019-03-29T13:13:25.331Z,12.10
2019-03-29T13:14:25.272Z,13.30
2019-03-29T13:15:25.373Z,11.40
2019-03-29T13:16:27.544Z,11.80
2019-03-29T13:17:28.311Z,11.20
2019-03-29T13:18:25.217Z,12.40
2019-03-29T13:19:25.264Z,11.50
2019-03-29T13:20:25.215Z,12.40
2019-03-29T13:21:25.286Z,11.70
2019-03-29T13:22:25.173Z,11.70
2019-03-29T13:23:25.192Z,11.80
2019-03-29T13:24:25.327Z,12.80
2019-03-29T13:25:25.253Z,11.60
2019-03-29T13:26:25.124Z,11.70
2019-03-29T13:27:25.220Z,12.10
2019-03-29T13:28:25.115Z,12.10
2019-03-29T13:29:25.466Z,13.00
2019-03-29T13:30:25.072Z,13.00
2019-03-29T13:31:25.180Z,11.90
2019-03-29T13:32:25.166Z,12.00
2019-03-29T13:33:25.160Z,11.70
2019-03-29T13:34:25.053Z,11.00
2019-03-29T13:35:25.069Z,13.10
2019-03-29T13:36:25.038Z,12.70
2019-03-29T13:37:25.082Z,12.30
2019-03-29T13:38:25.019Z,12.70
2019-03-29T13:39:25.102Z,13.90
2019-03-29T13:40:25.008Z,12.70
2019-03-29T13:41:25.109Z,12.20
2019-03-29T13:42:24.962Z,12.80
2019-03-29T13:43:25.025Z,13.40
2019-03-29T13:44:28.182Z,11.80
2019-03-29T13:45:27.703Z,13.00
2019-03-29T13:46:24.932Z,12.30
2019-03-29T13:47:24.975Z,12.50
2019-03-29T13:48:24.919Z,13.40
2019-03-29T13:49:25.523Z,13.70
2019-03-29T13:50:24.854Z,12.90
2019-03-29T13:51:25.008Z,14.90
2019-03-29T13:52:24.835Z,14.30
2019-03-29T13:53:24.904Z,14.10
2019-03-29T13:54:24.824Z,13.20
2019-03-29T13:55:24.907Z,15.80
2019-03-29T13:56:24.806Z,15.00
2019-03-29T13:57:24.845Z,14.60
2019-03-29T13:58:24.765Z,13.30
2019-03-29T13:59:24.836Z,15.30
2019-03-29T14:00:24.760Z,14.50
2019-03-29T14:01:24.912Z,14.40
2019-03-29T14:02:24.735Z,12.80
2019-03-29T14:03:24.762Z,14.50
2019-03-29T14:04:24.710Z,13.40
2019-03-29T14:05:24.786Z,12.90
2019-03-29T14:06:24.711Z,13.00
2019-03-29T14:07:24.817Z,14.60
2019-03-29T14:08:24.704Z,14.00
2019-03-29T14:09:24.699Z,12.60
2019-03-29T14:10:24.655Z,13.00
2019-03-29T14:11:24.704Z,13.20
2019-03-29T14:12:24.653Z,14.50
2019-03-29T14:13:24.726Z,15.80
2019-03-29T14:14:37.394Z,12.20
2019-03-29T14:15:25.588Z,14.80
2019-03-29T14:16:24.642Z,12.60
2019-03-29T14:17:24.612Z,13.40
2019-03-29T14:18:24.657Z,13.30
2019-03-29T14:19:25.945Z,14.50
2019-03-29T14:20:24.642Z,12.10
2019-03-29T14:21:24.522Z,14.50
2019-03-29T14:22:24.612Z,13.20
2019-03-29T14:23:24.500Z,16.50
2019-03-29T14:24:24.603Z,14.60
2019-03-29T14:25:24.507Z,13.40
2019-03-29T14:26:24.936Z,12.90
2019-03-29T14:27:24.766Z,13.40
2019-03-29T14:28:24.530Z,16.10
2019-03-29T14:29:24.428Z,13.80
2019-03-29T14:30:24.552Z,14.90
2019-03-29T14:31:24.420Z,14.60
2019-03-29T14:32:24.448Z,15.40
2019-03-29T14:33:24.417Z,17.10
2019-03-29T14:34:24.463Z,14.00
2019-03-29T14:35:24.384Z,15.10
2019-03-29T14:36:24.908Z,14.90
2019-03-29T14:37:24.406Z,12.50
2019-03-29T14:38:24.425Z,13.00
2019-03-29T14:39:24.327Z,13.00
2019-03-29T14:40:24.400Z,13.80
2019-03-29T14:41:24.352Z,12.90
2019-03-29T14:42:24.544Z,14.80
2019-03-29T14:43:24.315Z,12.60
2019-03-29T14:44:24.328Z,13.10
2019-03-29T14:45:24.265Z,17.00
2019-03-29T14:46:24.348Z,14.40
2019-03-29T14:47:38.142Z,16.50
2019-03-29T14:48:24.298Z,13.20
2019-03-29T14:49:24.261Z,15.20
2019-03-29T14:50:24.258Z,15.70
2019-03-29T14:51:24.272Z,13.10
2019-03-29T14:52:24.184Z,13.10
2019-03-29T14:53:24.353Z,15.90
2019-03-29T14:54:24.160Z,15.70
2019-03-29T14:55:24.201Z,16.10
2019-03-29T14:56:24.140Z,14.60
2019-03-29T14:57:24.252Z,15.10
2019-03-29T14:58:24.247Z,13.20
2019-03-29T15:00:26.207Z,16.60
2019-03-29T15:01:26.183Z,15.70
2019-03-29T15:02:24.073Z,17.50
2019-03-29T15:03:24.611Z,13.70
2019-03-29T15:04:25.181Z,13.80
2019-03-29T15:07:48.358Z,15.60
2019-03-29T15:08:24.435Z,15.70
2019-03-29T15:09:25.058Z,13.90
2019-03-29T15:10:24.377Z,15.60
2019-03-29T15:11:45.713Z,13.40
2019-03-29T15:12:24.339Z,13.20
2019-03-29T15:13:24.047Z,13.10
2019-03-29T15:14:25.090Z,15.40
2019-03-29T15:16:02.368Z,13.30
2019-03-29T15:16:25.288Z,13.40
2019-03-29T15:17:25.156Z,13.10
2019-03-29T15:18:24.643Z,13.80
2019-03-29T15:19:26.660Z,15.30
2019-03-29T15:20:24.595Z,14.80
2019-03-29T15:21:45.667Z,13.30
2019-03-29T15:22:33.073Z,17.30
2019-03-29T15:23:25.441Z,11.50
2019-03-29T15:24:35.717Z,11.20
2019-03-29T15:25:23.832Z,14.90
2019-03-29T15:26:23.837Z,13.30
2019-03-29T15:27:23.806Z,13.50
2019-03-29T15:28:23.913Z,12.70
2019-03-29T15:29:23.773Z,13.40
2019-03-29T15:30:23.854Z,12.90
2019-03-29T15:31:23.760Z,14.30
2019-03-29T15:32:23.840Z,14.70
2019-03-29T15:33:23.735Z,13.00
2019-03-29T15:34:23.780Z,12.20
2019-03-29T15:35:23.710Z,13.30
2019-03-29T15:36:23.760Z,11.70
2019-03-29T15:37:23.684Z,14.90
2019-03-29T15:38:23.775Z,16.60
2019-03-29T15:39:23.715Z,12.30
2019-03-29T15:40:23.726Z,12.20
2019-03-29T15:41:23.643Z,12.60
2019-03-29T15:42:23.702Z,11.30
2019-03-29T15:43:23.627Z,11.10
2019-03-29T15:44:23.752Z,13.20
2019-03-29T15:45:23.614Z,11.00
2019-03-29T15:46:23.734Z,12.70
2019-03-29T15:47:23.598Z,11.20
2019-03-29T15:48:23.661Z,12.40
2019-03-29T15:49:23.586Z,11.20
2019-03-29T15:50:23.698Z,11.00
2019-03-29T15:51:23.535Z,10.50
2019-03-29T15:52:23.572Z,9.80
2019-03-29T15:53:23.512Z,10.30
2019-03-29T15:54:23.596Z,11.30
2019-03-29T15:55:23.530Z,9.70
2019-03-29T15:56:23.610Z,9.50
2019-03-29T15:57:23.461Z,10.70
2019-03-29T15:58:23.512Z,10.50
2019-03-29T15:59:23.450Z,10.40
2019-03-29T16:00:23.557Z,10.40
2019-03-29T16:01:23.429Z,10.70
2019-03-29T16:02:23.471Z,8.40
2019-03-29T16:03:23.405Z,8.40
2019-03-29T16:04:23.467Z,8.00
2019-03-29T16:05:23.410Z,9.20
2019-03-29T16:06:23.547Z,10.10
2019-03-29T16:07:23.372Z,9.50
2019-03-29T16:08:23.380Z,8.80
2019-03-29T16:09:23.330Z,8.60
2019-03-29T16:10:23.418Z,9.20
2019-03-29T16:11:23.339Z,9.60
2019-03-29T16:12:23.423Z,10.40
2019-03-29T16:13:23.287Z,11.10
2019-03-29T16:14:23.315Z,10.80
2019-03-29T16:15:33.864Z,12.80
2019-03-29T16:16:24.289Z,15.00
2019-03-29T16:17:23.374Z,13.00
2019-03-29T16:18:23.236Z,16.50
2019-03-29T16:19:23.260Z,12.20
2019-03-29T16:20:23.208Z,12.50
2019-03-29T16:21:23.294Z,13.40
2019-03-29T16:22:23.206Z,13.50
2019-03-29T16:23:23.296Z,13.60
2019-03-29T16:24:23.196Z,12.20
2019-03-29T16:25:23.183Z,13.10
2019-03-29T16:26:23.165Z,13.00
2019-03-29T16:27:25.163Z,13.20
2019-03-29T16:28:23.133Z,16.20
2019-03-29T16:29:23.212Z,12.30
2019-03-29T16:30:23.114Z,13.60
2019-03-29T16:31:23.160Z,13.50
2019-03-29T16:32:23.072Z,14.80
2019-03-29T16:33:23.140Z,15.50
2019-03-29T16:34:23.060Z,18.10
2019-03-29T16:35:23.202Z,15.00
2019-03-29T16:36:23.061Z,14.90
2019-03-29T16:37:23.067Z,14.40
2019-03-29T16:38:22.995Z,15.00
2019-03-29T16:39:23.084Z,13.10
2019-03-29T16:40:22.998Z,14.40
2019-03-29T16:41:23.024Z,17.10
2019-03-29T16:42:22.962Z,16.90
2019-03-29T16:43:24.068Z,15.40
2019-03-29T16:44:23.378Z,16.00
2019-03-29T16:45:23.196Z,15.70
2019-03-29T16:46:22.925Z,16.10
2019-03-29T16:47:23.031Z,12.50
2019-03-29T16:48:22.919Z,12.30
2019-03-29T16:49:22.945Z,12.60
2019-03-29T16:50:22.888Z,13.80
2019-03-29T16:51:22.957Z,14.20
2019-03-29T16:52:22.922Z,12.30
2019-03-29T16:53:22.864Z,10.90
2019-03-29T16:54:22.834Z,11.80
2019-03-29T16:55:22.932Z,12.40
2019-03-29T16:56:22.835Z,12.50
2019-03-29T16:57:22.926Z,14.30
2019-03-29T16:58:22.792Z,12.30
2019-03-29T16:59:22.810Z,11.10
2019-03-29T17:00:22.761Z,12.80
2019-03-29T17:01:22.819Z,11.10
2019-03-29T17:02:22.736Z,11.40
2019-03-29T17:03:22.990Z,12.20
2019-03-29T17:04:22.953Z,12.00
2019-03-29T17:05:22.751Z,10.00
2019-03-29T17:06:22.704Z,12.70
2019-03-29T17:07:22.761Z,10.00
2019-03-29T17:08:22.724Z,11.50
2019-03-29T17:09:22.781Z,11.30
2019-03-29T17:10:22.657Z,12.40
2019-03-29T17:11:22.722Z,12.50
2019-03-29T17:12:22.635Z,16.40
2019-03-29T17:13:22.752Z,10.70
2019-03-29T17:14:22.606Z,12.20
2019-03-29T17:15:22.716Z,11.90
2019-03-29T17:16:30.327Z,10.40
2019-03-29T17:17:23.582Z,10.90
2019-03-29T17:18:29.219Z,12.80
2019-03-29T17:19:23.565Z,12.30
2019-03-29T17:20:22.656Z,11.00
2019-03-29T17:21:22.537Z,11.80
2019-03-29T17:22:22.553Z,11.60
2019-03-29T17:23:22.533Z,10.30
2019-03-29T17:24:22.577Z,12.00
2019-03-29T17:25:22.499Z,12.60
2019-03-29T17:26:22.587Z,12.00
2019-03-29T17:27:22.487Z,12.50
2019-03-29T17:28:22.700Z,12.10
2019-03-29T17:29:22.469Z,13.70
2019-03-29T17:30:22.513Z,12.00
2019-03-29T17:31:22.426Z,13.70
2019-03-29T17:32:22.537Z,16.90
2019-03-29T17:33:22.647Z,13.20
2019-03-29T17:34:22.595Z,16.90
2019-03-29T17:35:22.384Z,18.50
2019-03-29T17:36:22.453Z,21.40
2019-03-29T17:37:22.357Z,23.40
2019-03-29T17:38:22.473Z,22.80
2019-03-29T17:39:22.422Z,22.10
2019-03-29T17:40:22.380Z,21.60
2019-03-29T17:41:22.334Z,19.30
2019-03-29T17:42:22.395Z,18.80
2019-03-29T17:43:22.290Z,18.70
2019-03-29T17:44:22.353Z,17.50
2019-03-29T17:45:22.270Z,19.90
2019-03-29T17:46:22.319Z,19.90
2019-03-29T17:47:22.255Z,18.20
2019-03-29T17:48:22.332Z,19.30
2019-03-29T17:49:22.267Z,20.00
2019-03-29T17:50:25.225Z,17.80
2019-03-29T17:51:22.233Z,19.20
2019-03-29T17:52:22.264Z,18.10
2019-03-29T17:53:22.178Z,20.20
2019-03-29T17:54:22.271Z,18.20
2019-03-29T17:55:22.179Z,18.60
2019-03-29T17:56:22.180Z,18.30
2019-03-29T17:57:22.136Z,18.50
2019-03-29T17:58:22.205Z,20.50
2019-03-29T17:59:22.136Z,20.00
2019-03-29T18:00:22.243Z,19.20
2019-03-29T18:01:22.100Z,19.20
2019-03-29T18:02:22.133Z,19.40
2019-03-29T18:03:22.068Z,20.80
2019-03-29T18:04:22.169Z,22.70
2019-03-29T18:05:22.085Z,17.90
2019-03-29T18:06:22.158Z,19.60
2019-03-29T18:07:22.036Z,21.70
2019-03-29T18:08:22.083Z,21.00
2019-03-29T18:09:22.027Z,21.50
2019-03-29T18:10:22.111Z,21.40
2019-03-29T18:11:21.978Z,22.60
2019-03-29T18:12:22.122Z,21.50
2019-03-29T18:13:21.954Z,20.90
2019-03-29T18:14:22.003Z,20.00
2019-03-29T18:15:21.965Z,21.40
2019-03-29T18:16:30.387Z,21.60
2019-03-29T18:17:22.917Z,23.40
2019-03-29T18:18:22.026Z,19.00
2019-03-29T18:19:21.906Z,20.70
2019-03-29T18:20:21.975Z,24.40
2019-03-29T18:21:21.914Z,21.90
2019-03-29T18:22:21.952Z,25.10
2019-03-29T18:23:24.803Z,21.80
2019-03-29T18:24:21.967Z,22.40
2019-03-29T18:25:21.873Z,24.00
2019-03-29T18:26:21.876Z,24.30
2019-03-29T18:27:21.806Z,24.10
2019-03-29T18:28:21.902Z,23.90
2019-03-29T18:29:21.782Z,23.80
2019-03-29T18:30:21.903Z,25.80
2019-03-29T18:31:21.778Z,23.40
2019-03-29T18:32:21.858Z,23.50
2019-03-29T18:33:21.740Z,22.80
2019-03-29T18:34:22.048Z,24.40
2019-03-29T18:35:21.714Z,22.60
2019-03-29T18:36:21.779Z,21.00
2019-03-29T18:37:21.686Z,26.40
2019-03-29T18:38:21.758Z,22.20
2019-03-29T18:39:21.672Z,25.10
2019-03-29T18:40:21.778Z,25.20
2019-03-29T18:41:21.691Z,25.60
2019-03-29T18:42:21.706Z,21.90
2019-03-29T18:43:21.637Z,23.30
2019-03-29T18:44:21.690Z,22.60
2019-03-29T18:45:21.598Z,24.30
2019-03-29T18:46:21.747Z,22.60
2019-03-29T18:47:21.589Z,20.80
2019-03-29T18:48:21.618Z,26.30
2019-03-29T18:49:21.710Z,22.30
2019-03-29T18:50:21.641Z,22.90
2019-03-29T18:51:21.533Z,25.90
2019-03-29T18:52:21.587Z,24.60
2019-03-29T18:53:21.509Z,24.50
2019-03-29T18:54:21.556Z,24.80
2019-03-29T18:55:21.492Z,22.60
2019-03-29T18:56:21.575Z,25.70
2019-03-29T18:57:21.512Z,24.40
2019-03-29T18:58:21.509Z,23.60
2019-03-29T18:59:21.458Z,23.40
2019-03-29T19:00:21.499Z,29.20
2019-03-29T19:01:21.422Z,26.50
2019-03-29T19:02:21.550Z,31.10
2019-03-29T19:03:21.404Z,25.70
2019-03-29T19:04:21.430Z,25.20
2019-03-29T19:05:21.389Z,32.40
2019-03-29T19:06:21.589Z,27.90
2019-03-29T19:07:21.393Z,27.90
2019-03-29T19:08:21.491Z,27.30
2019-03-29T19:09:21.339Z,26.50
2019-03-29T19:10:21.365Z,28.70
2019-03-29T19:11:21.324Z,29.70
2019-03-29T19:12:21.384Z,28.50
2019-03-29T19:13:21.322Z,34.30
2019-03-29T19:14:21.401Z,27.20
2019-03-29T19:15:21.283Z,29.60
2019-03-29T19:16:21.316Z,33.60
2019-03-29T19:17:21.301Z,32.70
2019-03-29T19:18:21.382Z,31.00
2019-03-29T19:19:21.268Z,33.00
2019-03-29T19:20:27.963Z,32.50
2019-03-29T19:21:25.515Z,33.60
2019-03-29T19:22:21.270Z,29.80
2019-03-29T19:23:21.220Z,31.30
2019-03-29T19:24:21.268Z,32.40
2019-03-29T19:25:21.160Z,33.20
2019-03-29T19:26:23.124Z,32.50
2019-03-29T19:27:21.151Z,31.20
2019-03-29T19:28:21.218Z,32.50
2019-03-29T19:29:21.124Z,32.00
2019-03-29T19:30:21.199Z,36.10
2019-03-29T19:31:21.112Z,32.00